sensor_id;sensor_type;location;lat;lon;timestamp;pressure;altitude;pressure_sealevel;temperature;humidity
58064;BME280;43851;55.856;37.186;2022-09-09T00:06:30;100114.00;;;4.87;100.00
58064;BME280;43851;55.856;37.186;2022-09-09T00:14:20;100118.94;;;4.91;100.00
58064;BME280;43851;55.856;37.186;2022-09-09T00:16:54;100110.22;;;4.90;100.00
58064;BME280;43851;55.856;37.186;2022-09-09T00:19:41;100124.94;;;5.01;100.00
58064;BME280;43851;55.856;37.186;2022-09-09T00:22:19;100129.53;;;4.99;100.00
58064;BME280;43851;55.856;37.186;2022-09-09T00:27:32;100138.47;;;5.06;100.00
58064;BME280;43851;55.856;37.186;2022-09-09T00:32:47;100141.09;;;5.06;100.00
58064;BME280;43851;55.856;37.186;2022-09-09T00:37:50;100142.81;;;4.97;100.00
58064;BME280;43851;55.856;37.186;2022-09-09T00:59:45;100157.97;;;4.58;100.00
58064;BME280;43851;55.856;37.186;2022-09-09T01:02:22;100152.41;;;4.61;100.00
58064;BME280;43851;55.856;37.186;2022-09-09T01:04:52;100154.59;;;4.65;100.00
58064;BME280;43851;55.856;37.186;2022-09-09T01:07:18;100158.38;;;4.53;100.00
58064;BME280;43851;55.856;37.186;2022-09-09T01:09:51;100152.84;;;4.56;100.00
58064;BME280;43851;55.856;37.186;2022-09-09T01:12:40;100166.59;;;4.68;100.00
58064;BME280;43851;55.856;37.186;2022-09-09T01:15:17;100173.53;;;4.69;100.00
58064;BME280;43851;55.856;37.186;2022-09-09T01:17:51;100169.22;;;4.68;100.00
58064;BME280;43851;55.856;37.186;2022-09-09T01:20:24;100165.25;;;4.92;100.00
58064;BME280;43851;55.856;37.186;2022-09-09T01:28:21;100174.06;;;5.00;100.00
58064;BME280;43851;55.856;37.186;2022-09-09T01:30:49;100170.59;;;5.00;100.00
58064;BME280;43851;55.856;37.186;2022-09-09T01:33:18;100169.09;;;4.97;100.00
58064;BME280;43851;55.856;37.186;2022-09-09T01:38:39;100179.81;;;4.86;100.00
58064;BME280;43851;55.856;37.186;2022-09-09T01:41:05;100184.19;;;4.95;100.00
58064;BME280;43851;55.856;37.186;2022-09-09T01:43:40;100179.22;;;4.92;100.00
58064;BME280;43851;55.856;37.186;2022-09-09T01:46:06;100190.41;;;4.94;100.00
58064;BME280;43851;55.856;37.186;2022-09-09T01:48:35;100187.63;;;4.96;100.00
58064;BME280;43851;55.856;37.186;2022-09-09T01:51:04;100192.16;;;5.03;100.00
58064;BME280;43851;55.856;37.186;2022-09-09T01:53:29;100193.03;;;4.94;100.00
58064;BME280;43851;55.856;37.186;2022-09-09T01:56:11;100198.88;;;4.88;100.00
58064;BME280;43851;55.856;37.186;2022-09-09T01:59:08;100199.47;;;5.10;100.00
58064;BME280;43851;55.856;37.186;2022-09-09T02:07:00;100203.56;;;4.94;100.00
58064;BME280;43851;55.856;37.186;2022-09-09T02:09:30;100205.09;;;4.87;100.00
58064;BME280;43851;55.856;37.186;2022-09-09T02:12:19;100205.97;;;4.78;100.00
58064;BME280;43851;55.856;37.186;2022-09-09T02:15:03;100202.84;;;4.64;100.00
58064;BME280;43851;55.856;37.186;2022-09-09T02:17:37;100211.56;;;4.55;100.00
58064;BME280;43851;55.856;37.186;2022-09-09T02:20:13;100210.81;;;4.73;100.00
58064;BME280;43851;55.856;37.186;2022-09-09T02:22:56;100201.88;;;4.65;100.00
58064;BME280;43851;55.856;37.186;2022-09-09T02:25:26;100215.59;;;4.59;100.00
58064;BME280;43851;55.856;37.186;2022-09-09T02:27:57;100220.56;;;4.52;100.00
58064;BME280;43851;55.856;37.186;2022-09-09T02:30:24;100218.78;;;4.53;100.00
58064;BME280;43851;55.856;37.186;2022-09-09T02:32:56;100220.63;;;4.33;100.00
58064;BME280;43851;55.856;37.186;2022-09-09T02:35:37;100216.31;;;4.32;100.00
58064;BME280;43851;55.856;37.186;2022-09-09T02:38:06;100216.31;;;4.32;100.00
58064;BME280;43851;55.856;37.186;2022-09-09T02:40:35;100224.19;;;4.32;100.00
58064;BME280;43851;55.856;37.186;2022-09-09T02:43:02;100219.69;;;4.14;100.00
58064;BME280;43851;55.856;37.186;2022-09-09T02:45:38;100225.78;;;4.15;100.00
58064;BME280;43851;55.856;37.186;2022-09-09T02:48:14;100235.97;;;4.08;100.00
58064;BME280;43851;55.856;37.186;2022-09-09T02:51:09;100230.31;;;4.13;100.00
58064;BME280;43851;55.856;37.186;2022-09-09T02:56:05;100234.19;;;3.89;100.00
58064;BME280;43851;55.856;37.186;2022-09-09T02:58:37;100233.50;;;4.07;100.00
58064;BME280;43851;55.856;37.186;2022-09-09T03:01:05;100243.72;;;3.90;100.00
58064;BME280;43851;55.856;37.186;2022-09-09T03:03:31;100238.06;;;3.85;100.00
58064;BME280;43851;55.856;37.186;2022-09-09T03:06:00;100246.34;;;3.90;100.00
58064;BME280;43851;55.856;37.186;2022-09-09T03:08:27;100245.81;;;3.96;100.00
58064;BME280;43851;55.856;37.186;2022-09-09T03:10:55;100234.34;;;3.78;100.00
58064;BME280;43851;55.856;37.186;2022-09-09T03:13:21;100249.25;;;3.87;100.00
58064;BME280;43851;55.856;37.186;2022-09-09T03:15:48;100256.31;;;3.87;100.00
58064;BME280;43851;55.856;37.186;2022-09-09T03:18:17;100246.88;;;4.04;100.00
58064;BME280;43851;55.856;37.186;2022-09-09T03:20:48;100257.59;;;4.59;100.00
58064;BME280;43851;55.856;37.186;2022-09-09T03:23:18;100264.44;;;4.32;100.00
58064;BME280;43851;55.856;37.186;2022-09-09T03:25:51;100269.13;;;4.19;100.00
58064;BME280;43851;55.856;37.186;2022-09-09T03:28:23;100269.47;;;4.63;100.00
58064;BME280;43851;55.856;37.186;2022-09-09T03:30:51;100260.09;;;4.61;100.00
58064;BME280;43851;55.856;37.186;2022-09-09T03:33:17;100254.31;;;5.50;98.41
58064;BME280;43851;55.856;37.186;2022-09-09T03:35:46;100271.97;;;5.94;95.94
58064;BME280;43851;55.856;37.186;2022-09-09T03:38:15;100272.59;;;5.42;96.54
58064;BME280;43851;55.856;37.186;2022-09-09T03:40:52;100271.75;;;5.23;97.68
58064;BME280;43851;55.856;37.186;2022-09-09T03:43:24;100266.78;;;5.20;98.20
58064;BME280;43851;55.856;37.186;2022-09-09T03:45:52;100271.34;;;5.46;97.03
58064;BME280;43851;55.856;37.186;2022-09-09T03:48:23;100265.75;;;5.95;94.69
58064;BME280;43851;55.856;37.186;2022-09-09T03:50:52;100271.56;;;5.99;93.28
58064;BME280;43851;55.856;37.186;2022-09-09T03:53:21;100270.44;;;6.63;92.30
58064;BME280;43851;55.856;37.186;2022-09-09T03:55:49;100272.06;;;6.91;88.99
58064;BME280;43851;55.856;37.186;2022-09-09T03:58:16;100257.81;;;7.61;86.49
58064;BME280;43851;55.856;37.186;2022-09-09T04:01:08;100270.56;;;8.06;82.92
58064;BME280;43851;55.856;37.186;2022-09-09T04:03:35;100266.78;;;8.66;80.35
58064;BME280;43851;55.856;37.186;2022-09-09T04:06:02;100274.09;;;9.52;77.34
58064;BME280;43851;55.856;37.186;2022-09-09T04:08:30;100254.88;;;9.81;73.87
58064;BME280;43851;55.856;37.186;2022-09-09T04:11:01;100270.94;;;10.03;72.23
58064;BME280;43851;55.856;37.186;2022-09-09T04:13:32;100286.00;;;10.02;73.44
58064;BME280;43851;55.856;37.186;2022-09-09T04:16:02;100281.06;;;10.22;72.40
58064;BME280;43851;55.856;37.186;2022-09-09T04:18:31;100291.38;;;10.40;71.16
58064;BME280;43851;55.856;37.186;2022-09-09T04:20:58;100294.00;;;11.23;68.89
58064;BME280;43851;55.856;37.186;2022-09-09T04:23:27;100294.94;;;11.15;66.70
58064;BME280;43851;55.856;37.186;2022-09-09T04:25:57;100294.22;;;11.73;65.22
58064;BME280;43851;55.856;37.186;2022-09-09T04:28:26;100286.06;;;11.96;63.85
58064;BME280;43851;55.856;37.186;2022-09-09T04:30:53;100298.97;;;11.78;63.61
58064;BME280;43851;55.856;37.186;2022-09-09T04:33:19;100290.50;;;11.52;64.57
58064;BME280;43851;55.856;37.186;2022-09-09T04:35:49;100295.56;;;12.05;63.84
58064;BME280;43851;55.856;37.186;2022-09-09T04:38:17;100304.72;;;12.46;62.02
58064;BME280;43851;55.856;37.186;2022-09-09T04:40:46;100301.16;;;12.60;62.32
58064;BME280;43851;55.856;37.186;2022-09-09T04:43:14;100303.25;;;12.15;62.61
58064;BME280;43851;55.856;37.186;2022-09-09T04:45:43;100302.44;;;11.78;63.45
58064;BME280;43851;55.856;37.186;2022-09-09T04:48:09;100306.00;;;11.85;64.34
58064;BME280;43851;55.856;37.186;2022-09-09T04:50:35;100303.44;;;12.14;61.79
58064;BME280;43851;55.856;37.186;2022-09-09T04:53:02;100306.44;;;11.89;62.10
58064;BME280;43851;55.856;37.186;2022-09-09T04:55:31;100311.13;;;11.06;65.17
58064;BME280;43851;55.856;37.186;2022-09-09T04:57:57;100321.25;;;10.72;67.19
58064;BME280;43851;55.856;37.186;2022-09-09T05:00:24;100305.41;;;10.64;68.42
58064;BME280;43851;55.856;37.186;2022-09-09T05:02:51;100305.19;;;10.27;68.39
58064;BME280;43851;55.856;37.186;2022-09-09T05:05:17;100309.88;;;9.71;71.12
58064;BME280;43851;55.856;37.186;2022-09-09T05:07:46;100308.06;;;9.40;72.22
58064;BME280;43851;55.856;37.186;2022-09-09T05:10:13;100308.19;;;8.91;75.35
58064;BME280;43851;55.856;37.186;2022-09-09T05:12:52;100312.03;;;8.30;77.61
58064;BME280;43851;55.856;37.186;2022-09-09T05:15:18;100315.38;;;8.49;78.07
58064;BME280;43851;55.856;37.186;2022-09-09T05:17:46;100329.19;;;8.35;78.42
58064;BME280;43851;55.856;37.186;2022-09-09T05:20:13;100336.13;;;8.19;78.90
58064;BME280;43851;55.856;37.186;2022-09-09T05:22:39;100332.81;;;8.17;79.32
58064;BME280;43851;55.856;37.186;2022-09-09T05:25:06;100329.53;;;8.07;78.89
58064;BME280;43851;55.856;37.186;2022-09-09T05:27:34;100340.72;;;7.92;80.30
58064;BME280;43851;55.856;37.186;2022-09-09T05:30:00;100340.81;;;7.74;80.93
58064;BME280;43851;55.856;37.186;2022-09-09T05:32:26;100336.16;;;7.60;80.84
58064;BME280;43851;55.856;37.186;2022-09-09T05:34:52;100326.56;;;7.59;81.19
58064;BME280;43851;55.856;37.186;2022-09-09T05:37:18;100333.56;;;7.76;80.22
58064;BME280;43851;55.856;37.186;2022-09-09T05:39:44;100338.41;;;7.89;80.21
58064;BME280;43851;55.856;37.186;2022-09-09T05:42:10;100322.66;;;7.71;80.50
58064;BME280;43851;55.856;37.186;2022-09-09T05:44:37;100333.44;;;7.86;79.61
58064;BME280;43851;55.856;37.186;2022-09-09T05:47:03;100332.97;;;7.91;79.83
58064;BME280;43851;55.856;37.186;2022-09-09T05:49:29;100334.31;;;8.03;78.74
58064;BME280;43851;55.856;37.186;2022-09-09T05:51:55;100347.16;;;8.06;79.27
58064;BME280;43851;55.856;37.186;2022-09-09T05:54:22;100338.09;;;8.09;78.52
58064;BME280;43851;55.856;37.186;2022-09-09T05:56:51;100338.25;;;8.16;78.33
58064;BME280;43851;55.856;37.186;2022-09-09T05:59:19;100346.72;;;8.27;78.27
58064;BME280;43851;55.856;37.186;2022-09-09T06:01:46;100346.41;;;8.47;78.51
58064;BME280;43851;55.856;37.186;2022-09-09T06:04:23;100356.31;;;8.45;78.39
58064;BME280;43851;55.856;37.186;2022-09-09T06:06:50;100343.78;;;8.63;76.55
58064;BME280;43851;55.856;37.186;2022-09-09T06:09:18;100349.22;;;8.62;75.57
58064;BME280;43851;55.856;37.186;2022-09-09T06:11:44;100367.25;;;8.66;74.17
58064;BME280;43851;55.856;37.186;2022-09-09T06:14:13;100363.44;;;8.77;73.20
58064;BME280;43851;55.856;37.186;2022-09-09T06:16:39;100357.16;;;8.87;72.81
58064;BME280;43851;55.856;37.186;2022-09-09T06:19:17;100368.22;;;8.90;72.25
58064;BME280;43851;55.856;37.186;2022-09-09T06:21:43;100366.06;;;8.85;72.80
58064;BME280;43851;55.856;37.186;2022-09-09T06:24:11;100366.22;;;8.84;72.82
58064;BME280;43851;55.856;37.186;2022-09-09T06:26:39;100369.69;;;8.76;71.35
58064;BME280;43851;55.856;37.186;2022-09-09T06:29:10;100363.28;;;8.79;71.75
58064;BME280;43851;55.856;37.186;2022-09-09T06:31:37;100371.19;;;8.79;72.25
58064;BME280;43851;55.856;37.186;2022-09-09T06:34:10;100368.22;;;8.90;71.97
58064;BME280;43851;55.856;37.186;2022-09-09T06:36:42;100361.59;;;9.02;71.09
58064;BME280;43851;55.856;37.186;2022-09-09T06:39:08;100369.81;;;9.08;68.25
58064;BME280;43851;55.856;37.186;2022-09-09T06:41:37;100368.97;;;9.24;69.84
58064;BME280;43851;55.856;37.186;2022-09-09T06:44:06;100368.22;;;9.46;69.23
58064;BME280;43851;55.856;37.186;2022-09-09T06:46:39;100367.72;;;9.51;68.77
58064;BME280;43851;55.856;37.186;2022-09-09T06:49:08;100376.88;;;9.71;67.76
58064;BME280;43851;55.856;37.186;2022-09-09T06:51:36;100365.22;;;9.49;69.32
58064;BME280;43851;55.856;37.186;2022-09-09T06:54:04;100382.91;;;9.57;67.47
58064;BME280;43851;55.856;37.186;2022-09-09T06:56:32;100387.22;;;9.58;67.61
58064;BME280;43851;55.856;37.186;2022-09-09T06:59:05;100382.13;;;9.48;68.01
58064;BME280;43851;55.856;37.186;2022-09-09T07:01:34;100382.16;;;10.11;66.79
58064;BME280;43851;55.856;37.186;2022-09-09T07:04:05;100389.94;;;10.13;66.08
58064;BME280;43851;55.856;37.186;2022-09-09T07:06:45;100380.97;;;10.14;66.03
58064;BME280;43851;55.856;37.186;2022-09-09T07:09:16;100382.22;;;10.26;65.65
58064;BME280;43851;55.856;37.186;2022-09-09T07:11:46;100396.47;;;10.02;64.25
58064;BME280;43851;55.856;37.186;2022-09-09T07:14:13;100396.59;;;10.08;63.68
58064;BME280;43851;55.856;37.186;2022-09-09T07:16:42;100390.28;;;10.09;61.59
58064;BME280;43851;55.856;37.186;2022-09-09T07:19:10;100403.13;;;10.21;60.51
58064;BME280;43851;55.856;37.186;2022-09-09T07:21:37;100381.94;;;10.21;58.96
58064;BME280;43851;55.856;37.186;2022-09-09T07:24:03;100411.03;;;10.29;59.39
58064;BME280;43851;55.856;37.186;2022-09-09T07:26:33;100402.63;;;10.25;60.10
58064;BME280;43851;55.856;37.186;2022-09-09T07:29:00;100414.84;;;10.03;59.90
58064;BME280;43851;55.856;37.186;2022-09-09T07:31:30;100407.41;;;9.99;59.60
58064;BME280;43851;55.856;37.186;2022-09-09T07:33:57;100415.31;;;10.38;58.39
58064;BME280;43851;55.856;37.186;2022-09-09T07:36:28;100404.69;;;10.84;56.88
58064;BME280;43851;55.856;37.186;2022-09-09T07:38:58;100416.47;;;11.20;57.21
58064;BME280;43851;55.856;37.186;2022-09-09T07:41:37;100423.84;;;11.10;60.27
58064;BME280;43851;55.856;37.186;2022-09-09T07:44:08;100431.25;;;10.99;57.44
58064;BME280;43851;55.856;37.186;2022-09-09T07:46:37;100423.28;;;10.61;58.50
58064;BME280;43851;55.856;37.186;2022-09-09T07:49:09;100429.22;;;10.32;58.33
58064;BME280;43851;55.856;37.186;2022-09-09T07:51:38;100442.31;;;10.02;59.58
58064;BME280;43851;55.856;37.186;2022-09-09T07:54:09;100438.31;;;10.06;59.70
58064;BME280;43851;55.856;37.186;2022-09-09T07:56:38;100437.22;;;9.92;59.73
58064;BME280;43851;55.856;37.186;2022-09-09T07:59:06;100435.19;;;10.03;60.13
58064;BME280;43851;55.856;37.186;2022-09-09T08:01:37;100428.16;;;10.18;58.88
58064;BME280;43851;55.856;37.186;2022-09-09T08:04:08;100441.75;;;10.46;59.03
58064;BME280;43851;55.856;37.186;2022-09-09T08:06:38;100441.63;;;10.86;59.01
58064;BME280;43851;55.856;37.186;2022-09-09T08:09:06;100436.53;;;11.23;57.57
58064;BME280;43851;55.856;37.186;2022-09-09T08:11:33;100429.03;;;11.56;55.53
58064;BME280;43851;55.856;37.186;2022-09-09T08:14:00;100431.31;;;11.89;54.13
58064;BME280;43851;55.856;37.186;2022-09-09T08:16:29;100435.63;;;12.05;53.35
58064;BME280;43851;55.856;37.186;2022-09-09T08:18:57;100439.28;;;11.74;52.87
58064;BME280;43851;55.856;37.186;2022-09-09T08:21:26;100435.81;;;11.44;55.58
58064;BME280;43851;55.856;37.186;2022-09-09T08:23:58;100446.78;;;11.41;56.96
58064;BME280;43851;55.856;37.186;2022-09-09T08:26:30;100439.63;;;11.41;57.82
58064;BME280;43851;55.856;37.186;2022-09-09T08:28:59;100443.50;;;11.53;58.11
58064;BME280;43851;55.856;37.186;2022-09-09T08:31:34;100443.78;;;11.73;56.04
58064;BME280;43851;55.856;37.186;2022-09-09T08:34:01;100443.03;;;11.65;56.30
58064;BME280;43851;55.856;37.186;2022-09-09T08:36:33;100442.13;;;11.58;56.58
58064;BME280;43851;55.856;37.186;2022-09-09T08:39:00;100438.28;;;11.75;56.18
58064;BME280;43851;55.856;37.186;2022-09-09T08:41:32;100438.56;;;11.95;53.39
58064;BME280;43851;55.856;37.186;2022-09-09T08:44:09;100453.28;;;12.49;52.27
58064;BME280;43851;55.856;37.186;2022-09-09T08:51:42;100449.56;;;12.87;51.24
58064;BME280;43851;55.856;37.186;2022-09-09T08:54:09;100443.84;;;12.68;52.38
58064;BME280;43851;55.856;37.186;2022-09-09T08:56:36;100461.75;;;12.38;53.19
58064;BME280;43851;55.856;37.186;2022-09-09T08:59:03;100456.31;;;12.09;54.00
58064;BME280;43851;55.856;37.186;2022-09-09T09:02:00;100455.59;;;12.16;54.00
58064;BME280;43851;55.856;37.186;2022-09-09T09:07:24;100458.63;;;11.83;53.57
58064;BME280;43851;55.856;37.186;2022-09-09T09:12:27;100462.69;;;11.94;54.43
58064;BME280;43851;55.856;37.186;2022-09-09T09:14:55;100463.69;;;12.44;53.82
58064;BME280;43851;55.856;37.186;2022-09-09T09:17:25;100453.50;;;12.69;53.09
58064;BME280;43851;55.856;37.186;2022-09-09T09:19:53;100452.41;;;12.85;53.20
58064;BME280;43851;55.856;37.186;2022-09-09T09:25:11;100455.84;;;12.79;52.51
58064;BME280;43851;55.856;37.186;2022-09-09T09:27:52;100444.38;;;12.57;52.04
58064;BME280;43851;55.856;37.186;2022-09-09T09:30:25;100450.31;;;12.59;51.58
58064;BME280;43851;55.856;37.186;2022-09-09T09:32:58;100460.47;;;12.34;51.40
58064;BME280;43851;55.856;37.186;2022-09-09T09:35:26;100461.41;;;12.62;51.56
58064;BME280;43851;55.856;37.186;2022-09-09T09:37:55;100445.84;;;12.59;51.98
58064;BME280;43851;55.856;37.186;2022-09-09T09:40:22;100452.84;;;12.89;53.01
58064;BME280;43851;55.856;37.186;2022-09-09T09:43:02;100461.16;;;13.00;51.82
58064;BME280;43851;55.856;37.186;2022-09-09T09:45:44;100452.88;;;13.17;51.84
58064;BME280;43851;55.856;37.186;2022-09-09T09:48:16;100453.16;;;13.00;51.82
58064;BME280;43851;55.856;37.186;2022-09-09T09:53:29;100454.66;;;13.10;51.01
58064;BME280;43851;55.856;37.186;2022-09-09T09:56:12;100456.06;;;12.84;50.95
58064;BME280;43851;55.856;37.186;2022-09-09T10:01:27;100458.00;;;12.69;50.98
58064;BME280;43851;55.856;37.186;2022-09-09T10:04:23;100456.16;;;12.69;50.38
58064;BME280;43851;55.856;37.186;2022-09-09T10:06:56;100454.94;;;12.50;51.33
58064;BME280;43851;55.856;37.186;2022-09-09T10:09:28;100454.28;;;12.48;51.79
58064;BME280;43851;55.856;37.186;2022-09-09T10:12:19;100450.78;;;12.62;51.50
58064;BME280;43851;55.856;37.186;2022-09-09T10:20:42;100454.94;;;12.50;51.69
58064;BME280;43851;55.856;37.186;2022-09-09T10:36:57;100467.25;;;12.00;53.94
58064;BME280;43851;55.856;37.186;2022-09-09T10:39:36;100463.31;;;12.11;54.33
58064;BME280;43851;55.856;37.186;2022-09-09T10:42:09;100449.72;;;12.20;52.70
58064;BME280;43851;55.856;37.186;2022-09-09T10:50:42;100471.97;;;12.99;50.96
58064;BME280;43851;55.856;37.186;2022-09-09T10:56:04;100470.31;;;12.98;50.45
58064;BME280;43851;55.856;37.186;2022-09-09T10:59:02;100480.63;;;12.43;53.72
58064;BME280;43851;55.856;37.186;2022-09-09T11:01:37;100462.69;;;12.30;54.23
58064;BME280;43851;55.856;37.186;2022-09-09T11:04:12;100475.25;;;12.21;53.69
58064;BME280;43851;55.856;37.186;2022-09-09T11:06:44;100468.00;;;12.45;53.30
58064;BME280;43851;55.856;37.186;2022-09-09T11:09:16;100481.19;;;12.38;54.06
58064;BME280;43851;55.856;37.186;2022-09-09T11:11:57;100465.84;;;12.55;54.09
58064;BME280;43851;55.856;37.186;2022-09-09T11:14:50;100475.97;;;12.45;53.40
58064;BME280;43851;55.856;37.186;2022-09-09T11:17:20;100476.22;;;12.50;53.01
58064;BME280;43851;55.856;37.186;2022-09-09T11:19:47;100469.97;;;12.58;53.14
58064;BME280;43851;55.856;37.186;2022-09-09T11:22:33;100462.41;;;12.61;52.57
58064;BME280;43851;55.856;37.186;2022-09-09T11:25:27;100471.31;;;12.69;51.22
58064;BME280;43851;55.856;37.186;2022-09-09T11:36:51;100458.47;;;13.00;49.18
58064;BME280;43851;55.856;37.186;2022-09-09T11:42:25;100468.69;;;12.54;50.79
58064;BME280;43851;55.856;37.186;2022-09-09T11:44:52;100455.53;;;12.31;51.54
58064;BME280;43851;55.856;37.186;2022-09-09T11:47:30;100461.69;;;12.53;50.98
58064;BME280;43851;55.856;37.186;2022-09-09T11:52:45;100464.56;;;12.15;54.10
58064;BME280;43851;55.856;37.186;2022-09-09T11:55:34;100461.97;;;12.21;53.46
58064;BME280;43851;55.856;37.186;2022-09-09T12:00:39;100456.34;;;11.95;52.88
58064;BME280;43851;55.856;37.186;2022-09-09T12:03:48;100461.69;;;12.31;53.71
58064;BME280;43851;55.856;37.186;2022-09-09T12:06:56;100459.03;;;12.53;52.97
58064;BME280;43851;55.856;37.186;2022-09-09T12:09:32;100450.63;;;12.49;52.16
58064;BME280;43851;55.856;37.186;2022-09-09T12:17:31;100452.16;;;12.58;49.43
58064;BME280;43851;55.856;37.186;2022-09-09T12:20:13;100456.84;;;12.56;49.84
58064;BME280;43851;55.856;37.186;2022-09-09T12:22:42;100454.19;;;12.56;49.30
58064;BME280;43851;55.856;37.186;2022-09-09T12:28:09;100451.13;;;12.81;49.06
58064;BME280;43851;55.856;37.186;2022-09-09T12:33:20;100452.91;;;12.95;49.82
58064;BME280;43851;55.856;37.186;2022-09-09T12:36:05;100445.44;;;12.84;48.34
58064;BME280;43851;55.856;37.186;2022-09-09T12:38:40;100449.72;;;13.07;48.19
58064;BME280;43851;55.856;37.186;2022-09-09T12:41:20;100447.81;;;13.50;48.18
58064;BME280;43851;55.856;37.186;2022-09-09T12:43:46;100437.72;;;13.81;47.62
58064;BME280;43851;55.856;37.186;2022-09-09T12:46:30;100442.31;;;14.00;46.93
58064;BME280;43851;55.856;37.186;2022-09-09T12:48:59;100441.19;;;13.75;46.12
58064;BME280;43851;55.856;37.186;2022-09-09T12:51:30;100447.94;;;13.42;46.01
58064;BME280;43851;55.856;37.186;2022-09-09T12:54:12;100451.25;;;13.44;46.29
58064;BME280;43851;55.856;37.186;2022-09-09T12:56:46;100451.56;;;13.63;46.44
58064;BME280;43851;55.856;37.186;2022-09-09T12:59:37;100446.53;;;13.40;46.44
58064;BME280;43851;55.856;37.186;2022-09-09T13:02:22;100432.28;;;13.04;47.36
58064;BME280;43851;55.856;37.186;2022-09-09T13:04:48;100448.56;;;12.88;47.58
58064;BME280;43851;55.856;37.186;2022-09-09T13:07:17;100448.59;;;12.73;48.68
58064;BME280;43851;55.856;37.186;2022-09-09T13:09:47;100450.44;;;12.72;50.30
58064;BME280;43851;55.856;37.186;2022-09-09T13:12:21;100445.31;;;12.71;49.65
58064;BME280;43851;55.856;37.186;2022-09-09T13:14:53;100455.00;;;13.00;48.69
58064;BME280;43851;55.856;37.186;2022-09-09T13:17:24;100442.56;;;13.07;49.16
58064;BME280;43851;55.856;37.186;2022-09-09T13:19:51;100434.91;;;13.26;50.83
58064;BME280;43851;55.856;37.186;2022-09-09T13:22:31;100442.53;;;13.57;48.25
58064;BME280;43851;55.856;37.186;2022-09-09T13:25:01;100449.97;;;13.33;46.86
58064;BME280;43851;55.856;37.186;2022-09-09T13:29:57;100445.97;;;13.01;47.34
58064;BME280;43851;55.856;37.186;2022-09-09T13:32:24;100442.03;;;12.69;49.37
58064;BME280;43851;55.856;37.186;2022-09-09T13:34:53;100443.41;;;12.43;49.64
58064;BME280;43851;55.856;37.186;2022-09-09T13:37:30;100453.91;;;12.30;51.21
58064;BME280;43851;55.856;37.186;2022-09-09T13:39:58;100443.34;;;12.00;50.73
58064;BME280;43851;55.856;37.186;2022-09-09T13:42:29;100431.31;;;11.74;53.06
58064;BME280;43851;55.856;37.186;2022-09-09T13:44:57;100447.06;;;11.90;52.93
58064;BME280;43851;55.856;37.186;2022-09-09T13:47:34;100446.19;;;11.98;53.15
58064;BME280;43851;55.856;37.186;2022-09-09T13:52:52;100440.56;;;11.93;53.09
58064;BME280;43851;55.856;37.186;2022-09-09T13:55:20;100441.47;;;12.15;52.25
58064;BME280;43851;55.856;37.186;2022-09-09T13:57:51;100437.13;;;12.29;51.70
58064;BME280;43851;55.856;37.186;2022-09-09T14:00:18;100428.38;;;12.35;51.91
58064;BME280;43851;55.856;37.186;2022-09-09T14:02:44;100417.84;;;12.42;50.96
58064;BME280;43851;55.856;37.186;2022-09-09T14:05:10;100424.38;;;12.61;51.53
58064;BME280;43851;55.856;37.186;2022-09-09T14:07:38;100425.41;;;12.88;51.62
58064;BME280;43851;55.856;37.186;2022-09-09T14:10:06;100420.22;;;13.02;49.45
58064;BME280;43851;55.856;37.186;2022-09-09T14:12:32;100405.47;;;13.06;49.16
58064;BME280;43851;55.856;37.186;2022-09-09T14:14:58;100403.44;;;13.08;48.53
58064;BME280;43851;55.856;37.186;2022-09-09T14:17:25;100417.00;;;13.13;47.98
58064;BME280;43851;55.856;37.186;2022-09-09T14:19:57;100407.94;;;13.07;47.27
58064;BME280;43851;55.856;37.186;2022-09-09T14:22:24;100417.22;;;13.11;47.52
58064;BME280;43851;55.856;37.186;2022-09-09T14:24:51;100426.94;;;12.97;48.40
58064;BME280;43851;55.856;37.186;2022-09-09T14:27:17;100432.78;;;12.86;48.48
58064;BME280;43851;55.856;37.186;2022-09-09T14:29:44;100430.38;;;12.70;48.73
58064;BME280;43851;55.856;37.186;2022-09-09T14:32:13;100424.94;;;12.56;49.53
58064;BME280;43851;55.856;37.186;2022-09-09T14:34:38;100426.50;;;12.51;50.27
58064;BME280;43851;55.856;37.186;2022-09-09T14:37:04;100428.47;;;12.42;50.75
58064;BME280;43851;55.856;37.186;2022-09-09T14:39:30;100416.03;;;12.27;50.32
58064;BME280;43851;55.856;37.186;2022-09-09T14:41:56;100415.41;;;12.25;50.74
58064;BME280;43851;55.856;37.186;2022-09-09T14:44:22;100430.22;;;12.35;50.94
58064;BME280;43851;55.856;37.186;2022-09-09T14:46:48;100428.69;;;12.25;50.27
58064;BME280;43851;55.856;37.186;2022-09-09T14:49:16;100425.22;;;12.25;49.70
58064;BME280;43851;55.856;37.186;2022-09-09T14:51:42;100430.66;;;12.17;50.18
58064;BME280;43851;55.856;37.186;2022-09-09T14:54:08;100428.56;;;12.12;50.61
58064;BME280;43851;55.856;37.186;2022-09-09T14:56:34;100431.47;;;12.17;50.37
58064;BME280;43851;55.856;37.186;2022-09-09T14:59:00;100424.63;;;12.08;51.42
58064;BME280;43851;55.856;37.186;2022-09-09T15:01:26;100428.94;;;11.94;51.03
58064;BME280;43851;55.856;37.186;2022-09-09T15:03:59;100421.97;;;11.78;51.63
58064;BME280;43851;55.856;37.186;2022-09-09T15:06:26;100420.25;;;11.70;52.00
58064;BME280;43851;55.856;37.186;2022-09-09T15:08:53;100418.69;;;11.61;52.08
58064;BME280;43851;55.856;37.186;2022-09-09T15:11:20;100419.97;;;11.50;52.11
58064;BME280;43851;55.856;37.186;2022-09-09T15:13:50;100423.09;;;11.54;52.67
58064;BME280;43851;55.856;37.186;2022-09-09T15:16:19;100425.09;;;11.52;53.84
58064;BME280;43851;55.856;37.186;2022-09-09T15:18:46;100417.59;;;11.41;53.90